sensor_id;sensor_type;location;lat;lon;timestamp;temperature;humidity
60473;DHT22;46318;52.716;6.444;2023-10-13T00:02:09;16.30;100.00
60473;DHT22;46318;52.716;6.444;2023-10-13T00:04:36;16.30;100.00
60473;DHT22;46318;52.716;6.444;2023-10-13T00:07:03;16.30;100.00
60473;DHT22;46318;52.716;6.444;2023-10-13T00:09:30;16.30;100.00
60473;DHT22;46318;52.716;6.444;2023-10-13T00:12:06;16.30;100.00
60473;DHT22;46318;52.716;6.444;2023-10-13T00:14:39;16.40;100.00
60473;DHT22;46318;52.716;6.444;2023-10-13T00:17:11;16.30;100.00
60473;DHT22;46318;52.716;6.444;2023-10-13T00:19:45;16.40;100.00
60473;DHT22;46318;52.716;6.444;2023-10-13T00:22:17;16.40;100.00
60473;DHT22;46318;52.716;6.444;2023-10-13T00:24:45;16.40;100.00
60473;DHT22;46318;52.716;6.444;2023-10-13T00:27:16;16.40;100.00
60473;DHT22;46318;52.716;6.444;2023-10-13T00:30:07;16.40;100.00
60473;DHT22;46318;52.716;6.444;2023-10-13T00:32:54;16.40;100.00
60473;DHT22;46318;52.716;6.444;2023-10-13T00:35:28;16.40;100.00
60473;DHT22;46318;52.716;6.444;2023-10-13T00:37:58;16.40;100.00
60473;DHT22;46318;52.716;6.444;2023-10-13T00:40:30;16.40;100.00
60473;DHT22;46318;52.716;6.444;2023-10-13T00:42:57;16.40;100.00
60473;DHT22;46318;52.716;6.444;2023-10-13T00:45:46;16.50;100.00
60473;DHT22;46318;52.716;6.444;2023-10-13T00:48:30;16.50;100.00
60473;DHT22;46318;52.716;6.444;2023-10-13T00:51:05;16.50;100.00
60473;DHT22;46318;52.716;6.444;2023-10-13T00:53:44;16.50;100.00
60473;DHT22;46318;52.716;6.444;2023-10-13T00:56:13;16.50;100.00
60473;DHT22;46318;52.716;6.444;2023-10-13T00:58:46;16.50;100.00
60473;DHT22;46318;52.716;6.444;2023-10-13T01:01:22;16.50;100.00
60473;DHT22;46318;52.716;6.444;2023-10-13T01:03:52;16.50;100.00
60473;DHT22;46318;52.716;6.444;2023-10-13T01:06:22;16.50;100.00
60473;DHT22;46318;52.716;6.444;2023-10-13T01:08:58;16.50;100.00
60473;DHT22;46318;52.716;6.444;2023-10-13T01:11:25;16.50;100.00
60473;DHT22;46318;52.716;6.444;2023-10-13T01:13:55;16.50;100.00
60473;DHT22;46318;52.716;6.444;2023-10-13T01:16:22;16.50;100.00
60473;DHT22;46318;52.716;6.444;2023-10-13T01:18:55;16.60;100.00
60473;DHT22;46318;52.716;6.444;2023-10-13T01:21:28;16.50;100.00
60473;DHT22;46318;52.716;6.444;2023-10-13T01:23:54;16.50;100.00
60473;DHT22;46318;52.716;6.444;2023-10-13T01:26:20;16.50;100.00
60473;DHT22;46318;52.716;6.444;2023-10-13T01:28:56;16.50;100.00
60473;DHT22;46318;52.716;6.444;2023-10-13T01:31:23;16.50;100.00
60473;DHT22;46318;52.716;6.444;2023-10-13T01:33:57;16.50;100.00
60473;DHT22;46318;52.716;6.444;2023-10-13T01:36:27;16.50;100.00
60473;DHT22;46318;52.716;6.444;2023-10-13T01:38:53;16.50;100.00
60473;DHT22;46318;52.716;6.444;2023-10-13T01:41:21;16.50;100.00
60473;DHT22;46318;52.716;6.444;2023-10-13T01:43:48;16.60;100.00
60473;DHT22;46318;52.716;6.444;2023-10-13T01:46:14;16.50;100.00
60473;DHT22;46318;52.716;6.444;2023-10-13T01:48:47;16.60;100.00
60473;DHT22;46318;52.716;6.444;2023-10-13T01:51:13;16.50;100.00
60473;DHT22;46318;52.716;6.444;2023-10-13T01:53:40;16.60;100.00
60473;DHT22;46318;52.716;6.444;2023-10-13T01:56:09;16.60;100.00
60473;DHT22;46318;52.716;6.444;2023-10-13T01:58:40;16.60;100.00
60473;DHT22;46318;52.716;6.444;2023-10-13T02:01:13;16.60;100.00
60473;DHT22;46318;52.716;6.444;2023-10-13T02:03:39;16.60;100.00
60473;DHT22;46318;52.716;6.444;2023-10-13T02:06:12;16.60;100.00
60473;DHT22;46318;52.716;6.444;2023-10-13T02:08:43;16.60;100.00
60473;DHT22;46318;52.716;6.444;2023-10-13T02:11:12;16.60;100.00
60473;DHT22;46318;52.716;6.444;2023-10-13T02:13:38;16.60;100.00
60473;DHT22;46318;52.716;6.444;2023-10-13T02:16:13;16.60;100.00
60473;DHT22;46318;52.716;6.444;2023-10-13T02:18:50;16.60;100.00
60473;DHT22;46318;52.716;6.444;2023-10-13T02:21:18;16.60;100.00
60473;DHT22;46318;52.716;6.444;2023-10-13T02:23:44;16.60;100.00
60473;DHT22;46318;52.716;6.444;2023-10-13T02:26:14;16.60;100.00
60473;DHT22;46318;52.716;6.444;2023-10-13T02:28:44;16.60;100.00
60473;DHT22;46318;52.716;6.444;2023-10-13T02:31:15;16.60;100.00
60473;DHT22;46318;52.716;6.444;2023-10-13T02:33:43;16.60;100.00
60473;DHT22;46318;52.716;6.444;2023-10-13T02:36:10;16.60;100.00
60473;DHT22;46318;52.716;6.444;2023-10-13T02:38:38;16.60;100.00
60473;DHT22;46318;52.716;6.444;2023-10-13T02:41:10;16.60;100.00
60473;DHT22;46318;52.716;6.444;2023-10-13T02:43:37;16.60;100.00
60473;DHT22;46318;52.716;6.444;2023-10-13T02:46:04;16.60;100.00
60473;DHT22;46318;52.716;6.444;2023-10-13T02:48:30;16.60;100.00
60473;DHT22;46318;52.716;6.444;2023-10-13T02:51:06;16.60;100.00
60473;DHT22;46318;52.716;6.444;2023-10-13T02:53:44;16.60;100.00
60473;DHT22;46318;52.716;6.444;2023-10-13T02:56:14;16.60;100.00
60473;DHT22;46318;52.716;6.444;2023-10-13T02:58:50;16.60;100.00
60473;DHT22;46318;52.716;6.444;2023-10-13T03:01:22;16.60;100.00
60473;DHT22;46318;52.716;6.444;2023-10-13T03:03:54;16.60;100.00
60473;DHT22;46318;52.716;6.444;2023-10-13T03:06:22;16.60;100.00
60473;DHT22;46318;52.716;6.444;2023-10-13T03:08:51;16.60;100.00
60473;DHT22;46318;52.716;6.444;2023-10-13T03:11:21;16.60;100.00
60473;DHT22;46318;52.716;6.444;2023-10-13T03:13:50;16.60;100.00
60473;DHT22;46318;52.716;6.444;2023-10-13T03:16:18;16.60;100.00
60473;DHT22;46318;52.716;6.444;2023-10-13T03:18:50;16.60;100.00
60473;DHT22;46318;52.716;6.444;2023-10-13T03:21:24;16.60;100.00
60473;DHT22;46318;52.716;6.444;2023-10-13T03:23:58;16.60;100.00
60473;DHT22;46318;52.716;6.444;2023-10-13T03:26:33;16.60;100.00
60473;DHT22;46318;52.716;6.444;2023-10-13T03:29:06;16.60;100.00
60473;DHT22;46318;52.716;6.444;2023-10-13T03:31:37;16.60;100.00
60473;DHT22;46318;52.716;6.444;2023-10-13T03:34:05;16.60;100.00
60473;DHT22;46318;52.716;6.444;2023-10-13T03:36:31;16.60;100.00
60473;DHT22;46318;52.716;6.444;2023-10-13T03:39:15;16.60;100.00
60473;DHT22;46318;52.716;6.444;2023-10-13T03:41:44;16.60;100.00
60473;DHT22;46318;52.716;6.444;2023-10-13T03:44:10;16.60;100.00
60473;DHT22;46318;52.716;6.444;2023-10-13T03:46:46;16.60;100.00
60473;DHT22;46318;52.716;6.444;2023-10-13T03:49:16;16.60;100.00
60473;DHT22;46318;52.716;6.444;2023-10-13T03:51:50;16.60;100.00
60473;DHT22;46318;52.716;6.444;2023-10-13T03:54:20;16.60;100.00
60473;DHT22;46318;52.716;6.444;2023-10-13T03:56:48;16.60;100.00
60473;DHT22;46318;52.716;6.444;2023-10-13T03:59:18;16.60;100.00
60473;DHT22;46318;52.716;6.444;2023-10-13T04:02:03;16.60;100.00
60473;DHT22;46318;52.716;6.444;2023-10-13T04:04:45;16.60;100.00
60473;DHT22;46318;52.716;6.444;2023-10-13T04:07:15;16.60;100.00
60473;DHT22;46318;52.716;6.444;2023-10-13T04:09:59;16.60;100.00
60473;DHT22;46318;52.716;6.444;2023-10-13T04:12:47;16.50;100.00
60473;DHT22;46318;52.716;6.444;2023-10-13T04:15:31;16.60;100.00
60473;DHT22;46318;52.716;6.444;2023-10-13T04:18:08;16.50;100.00
60473;DHT22;46318;52.716;6.444;2023-10-13T04:20:59;16.50;100.00
60473;DHT22;46318;52.716;6.444;2023-10-13T04:23:44;16.50;100.00
60473;DHT22;46318;52.716;6.444;2023-10-13T04:26:29;16.50;100.00
60473;DHT22;46318;52.716;6.444;2023-10-13T04:29:14;16.50;100.00
60473;DHT22;46318;52.716;6.444;2023-10-13T04:31:59;16.50;100.00
60473;DHT22;46318;52.716;6.444;2023-10-13T04:34:29;16.50;100.00
60473;DHT22;46318;52.716;6.444;2023-10-13T04:37:03;16.50;100.00
60473;DHT22;46318;52.716;6.444;2023-10-13T04:40:08;16.50;100.00
60473;DHT22;46318;52.716;6.444;2023-10-13T04:42:36;16.50;100.00
60473;DHT22;46318;52.716;6.444;2023-10-13T04:45:16;16.50;100.00
60473;DHT22;46318;52.716;6.444;2023-10-13T04:48:07;16.50;100.00
60473;DHT22;46318;52.716;6.444;2023-10-13T04:51:08;16.50;100.00
60473;DHT22;46318;52.716;6.444;2023-10-13T04:54:21;16.50;100.00
60473;DHT22;46318;52.716;6.444;2023-10-13T04:57:02;16.50;100.00
60473;DHT22;46318;52.716;6.444;2023-10-13T05:00:13;16.40;100.00
60473;DHT22;46318;52.716;6.444;2023-10-13T05:03:09;16.40;100.00
60473;DHT22;46318;52.716;6.444;2023-10-13T05:06:01;16.40;100.00
60473;DHT22;46318;52.716;6.444;2023-10-13T05:58:35;16.40;100.00
60473;DHT22;46318;52.716;6.444;2023-10-13T06:01:28;16.40;100.00
60473;DHT22;46318;52.716;6.444;2023-10-13T06:04:41;16.40;100.00
60473;DHT22;46318;52.716;6.444;2023-10-13T06:07:47;16.40;100.00
60473;DHT22;46318;52.716;6.444;2023-10-13T06:10:49;16.40;100.00
60473;DHT22;46318;52.716;6.444;2023-10-13T06:13:43;16.40;100.00
60473;DHT22;46318;52.716;6.444;2023-10-13T06:16:39;16.40;100.00
60473;DHT22;46318;52.716;6.444;2023-10-13T06:19:46;16.40;100.00
60473;DHT22;46318;52.716;6.444;2023-10-13T06:22:38;16.40;100.00
60473;DHT22;46318;52.716;6.444;2023-10-13T06:25:58;16.40;100.00
60473;DHT22;46318;52.716;6.444;2023-10-13T06:28:59;16.30;100.00
60473;DHT22;46318;52.716;6.444;2023-10-13T06:31:58;16.40;100.00
60473;DHT22;46318;52.716;6.444;2023-10-13T06:35:03;16.40;100.00
60473;DHT22;46318;52.716;6.444;2023-10-13T06:37:35;16.40;100.00
60473;DHT22;46318;52.716;6.444;2023-10-13T06:40:31;16.40;100.00
60473;DHT22;46318;52.716;6.444;2023-10-13T06:43:45;16.50;100.00
60473;DHT22;46318;52.716;6.444;2023-10-13T06:49:41;16.50;100.00
60473;DHT22;46318;52.716;6.444;2023-10-13T06:53:00;16.60;100.00
60473;DHT22;46318;52.716;6.444;2023-10-13T07:07:11;16.70;100.00
60473;DHT22;46318;52.716;6.444;2023-10-13T07:09:43;16.70;100.00
60473;DHT22;46318;52.716;6.444;2023-10-13T07:12:33;16.70;100.00
60473;DHT22;46318;52.716;6.444;2023-10-13T07:15:03;16.70;100.00
60473;DHT22;46318;52.716;6.444;2023-10-13T07:17:36;16.70;100.00
60473;DHT22;46318;52.716;6.444;2023-10-13T07:20:14;16.70;100.00
60473;DHT22;46318;52.716;6.444;2023-10-13T07:22:41;16.80;100.00
60473;DHT22;46318;52.716;6.444;2023-10-13T07:25:21;16.80;100.00
60473;DHT22;46318;52.716;6.444;2023-10-13T07:27:59;16.80;100.00
60473;DHT22;46318;52.716;6.444;2023-10-13T07:30:36;16.80;100.00
60473;DHT22;46318;52.716;6.444;2023-10-13T07:33:21;16.80;100.00
60473;DHT22;46318;52.716;6.444;2023-10-13T07:35:58;16.80;100.00
60473;DHT22;46318;52.716;6.444;2023-10-13T07:39:07;16.80;100.00
60473;DHT22;46318;52.716;6.444;2023-10-13T07:41:52;16.80;100.00
60473;DHT22;46318;52.716;6.444;2023-10-13T07:44:44;16.80;100.00
60473;DHT22;46318;52.716;6.444;2023-10-13T07:47:16;16.80;100.00
60473;DHT22;46318;52.716;6.444;2023-10-13T07:53:46;16.90;100.00
60473;DHT22;46318;52.716;6.444;2023-10-13T08:01:11;16.90;100.00
60473;DHT22;46318;52.716;6.444;2023-10-13T08:03:46;16.90;100.00
60473;DHT22;46318;52.716;6.444;2023-10-13T08:06:16;16.90;100.00
60473;DHT22;46318;52.716;6.444;2023-10-13T08:09:09;16.90;100.00
60473;DHT22;46318;52.716;6.444;2023-10-13T08:11:54;16.90;100.00
60473;DHT22;46318;52.716;6.444;2023-10-13T08:14:21;16.90;100.00
60473;DHT22;46318;52.716;6.444;2023-10-13T08:17:40;16.90;100.00
60473;DHT22;46318;52.716;6.444;2023-10-13T08:20:10;16.90;100.00
60473;DHT22;46318;52.716;6.444;2023-10-13T08:26:10;17.00;100.00
60473;DHT22;46318;52.716;6.444;2023-10-13T08:29:04;17.00;100.00
60473;DHT22;46318;52.716;6.444;2023-10-13T08:31:50;17.00;100.00
60473;DHT22;46318;52.716;6.444;2023-10-13T08:34:40;17.00;100.00
60473;DHT22;46318;52.716;6.444;2023-10-13T08:37:13;17.00;100.00
60473;DHT22;46318;52.716;6.444;2023-10-13T08:39:56;17.00;100.00
60473;DHT22;46318;52.716;6.444;2023-10-13T08:42:39;17.10;100.00
60473;DHT22;46318;52.716;6.444;2023-10-13T08:45:23;17.20;100.00
60473;DHT22;46318;52.716;6.444;2023-10-13T08:47:57;17.20;100.00
60473;DHT22;46318;52.716;6.444;2023-10-13T08:50:52;17.30;100.00
60473;DHT22;46318;52.716;6.444;2023-10-13T08:53:37;17.30;100.00
60473;DHT22;46318;52.716;6.444;2023-10-13T08:56:33;17.40;100.00
60473;DHT22;46318;52.716;6.444;2023-10-13T08:59:21;17.50;100.00
60473;DHT22;46318;52.716;6.444;2023-10-13T09:02:30;17.50;100.00
60473;DHT22;46318;52.716;6.444;2023-10-13T09:05:32;17.60;100.00
60473;DHT22;46318;52.716;6.444;2023-10-13T09:08:27;17.70;100.00
60473;DHT22;46318;52.716;6.444;2023-10-13T09:11:15;17.80;100.00
60473;DHT22;46318;52.716;6.444;2023-10-13T09:13:52;17.80;100.00
60473;DHT22;46318;52.716;6.444;2023-10-13T09:20:08;17.90;100.00
60473;DHT22;46318;52.716;6.444;2023-10-13T09:23:21;18.00;100.00
60473;DHT22;46318;52.716;6.444;2023-10-13T09:26:37;18.10;100.00
60473;DHT22;46318;52.716;6.444;2023-10-13T09:33:29;18.10;100.00
60473;DHT22;46318;52.716;6.444;2023-10-13T09:36:28;18.10;100.00
60473;DHT22;46318;52.716;6.444;2023-10-13T09:39:21;18.20;100.00
60473;DHT22;46318;52.716;6.444;2023-10-13T09:42:21;18.20;100.00
60473;DHT22;46318;52.716;6.444;2023-10-13T09:45:41;18.20;100.00
60473;DHT22;46318;52.716;6.444;2023-10-13T09:48:45;18.20;100.00
60473;DHT22;46318;52.716;6.444;2023-10-13T09:51:30;18.20;100.00
60473;DHT22;46318;52.716;6.444;2023-10-13T09:54:24;18.30;100.00
60473;DHT22;46318;52.716;6.444;2023-10-13T09:57:26;18.30;99.50
60473;DHT22;46318;52.716;6.444;2023-10-13T10:00:17;18.30;99.60
60473;DHT22;46318;52.716;6.444;2023-10-13T10:03:16;18.30;99.70
60473;DHT22;46318;52.716;6.444;2023-10-13T10:06:23;18.30;99.20
60473;DHT22;46318;52.716;6.444;2023-10-13T10:09:11;18.40;98.60
60473;DHT22;46318;52.716;6.444;2023-10-13T10:15:25;18.40;98.50
60473;DHT22;46318;52.716;6.444;2023-10-13T10:18:40;18.50;98.10
60473;DHT22;46318;52.716;6.444;2023-10-13T10:21:39;18.50;98.00
60473;DHT22;46318;52.716;6.444;2023-10-13T10:29:15;18.70;96.90
60473;DHT22;46318;52.716;6.444;2023-10-13T10:32:53;18.70;97.20
60473;DHT22;46318;52.716;6.444;2023-10-13T10:36:36;18.70;96.50
60473;DHT22;46318;52.716;6.444;2023-10-13T10:43:37;18.80;96.00
60473;DHT22;46318;52.716;6.444;2023-10-13T10:53:23;18.90;95.50
60473;DHT22;46318;52.716;6.444;2023-10-13T10:59:43;18.90;94.40
60473;DHT22;46318;52.716;6.444;2023-10-13T11:02:29;18.90;95.10
60473;DHT22;46318;52.716;6.444;2023-10-13T11:05:18;19.00;95.00
60473;DHT22;46318;52.716;6.444;2023-10-13T11:07:46;18.90;94.80
60473;DHT22;46318;52.716;6.444;2023-10-13T11:10:35;19.00;94.40
60473;DHT22;46318;52.716;6.444;2023-10-13T11:13:17;19.00;94.00
60473;DHT22;46318;52.716;6.444;2023-10-13T11:16:09;19.00;93.60
60473;DHT22;46318;52.716;6.444;2023-10-13T11:19:21;19.10;92.90
60473;DHT22;46318;52.716;6.444;2023-10-13T11:22:21;19.10;92.90
60473;DHT22;46318;52.716;6.444;2023-10-13T11:25:08;19.10;92.30
60473;DHT22;46318;52.716;6.444;2023-10-13T11:27:48;19.10;92.60
60473;DHT22;46318;52.716;6.444;2023-10-13T11:30:22;19.20;92.20
60473;DHT22;46318;52.716;6.444;2023-10-13T11:33:25;19.20;91.90
60473;DHT22;46318;52.716;6.444;2023-10-13T11:35:58;19.30;91.80
60473;DHT22;46318;52.716;6.444;2023-10-13T11:38:37;19.40;91.10
60473;DHT22;46318;52.716;6.444;2023-10-13T11:41:29;19.50;89.70
60473;DHT22;46318;52.716;6.444;2023-10-13T11:44:19;19.50;91.00
60473;DHT22;46318;52.716;6.444;2023-10-13T11:59:21;19.60;88.40
60473;DHT22;46318;52.716;6.444;2023-10-13T12:26:12;19.60;87.20
60473;DHT22;46318;52.716;6.444;2023-10-13T12:40:41;19.80;85.10
60473;DHT22;46318;52.716;6.444;2023-10-13T12:44:36;19.90;83.10
60473;DHT22;46318;52.716;6.444;2023-10-13T12:47:55;20.00;83.10
60473;DHT22;46318;52.716;6.444;2023-10-13T12:50:44;20.00;82.90
60473;DHT22;46318;52.716;6.444;2023-10-13T12:54:15;20.10;82.60
60473;DHT22;46318;52.716;6.444;2023-10-13T12:57:20;20.10;80.90
60473;DHT22;46318;52.716;6.444;2023-10-13T12:59:49;20.10;81.60
60473;DHT22;46318;52.716;6.444;2023-10-13T13:02:53;20.10;81.80
60473;DHT22;46318;52.716;6.444;2023-10-13T13:06:23;20.10;81.40
60473;DHT22;46318;52.716;6.444;2023-10-13T13:09:18;20.10;80.80
60473;DHT22;46318;52.716;6.444;2023-10-13T13:11:59;20.10;81.20
60473;DHT22;46318;52.716;6.444;2023-10-13T13:14:27;20.10;81.00
60473;DHT22;46318;52.716;6.444;2023-10-13T13:20:01;20.20;81.70
60473;DHT22;46318;52.716;6.444;2023-10-13T13:22:39;20.20;81.20
60473;DHT22;46318;52.716;6.444;2023-10-13T13:25:20;20.20;81.00
60473;DHT22;46318;52.716;6.444;2023-10-13T13:28:21;20.20;80.90
60473;DHT22;46318;52.716;6.444;2023-10-13T13:30:49;20.20;80.90
60473;DHT22;46318;52.716;6.444;2023-10-13T13:33:34;20.20;80.00
60473;DHT22;46318;52.716;6.444;2023-10-13T13:36:06;20.30;80.90
60473;DHT22;46318;52.716;6.444;2023-10-13T13:38:33;20.20;81.40
60473;DHT22;46318;52.716;6.444;2023-10-13T13:40:59;20.20;81.90
60473;DHT22;46318;52.716;6.444;2023-10-13T13:43:51;20.20;82.30
60473;DHT22;46318;52.716;6.444;2023-10-13T13:46:50;20.10;82.70
60473;DHT22;46318;52.716;6.444;2023-10-13T16:34:00;18.10;99.20
60473;DHT22;46318;52.716;6.444;2023-10-13T16:36:47;18.10;99.20
60473;DHT22;46318;52.716;6.444;2023-10-13T16:39:26;18.10;99.30
60473;DHT22;46318;52.716;6.444;2023-10-13T16:42:00;18.10;99.40
60473;DHT22;46318;52.716;6.444;2023-10-13T16:44:33;18.10;99.40
60473;DHT22;46318;52.716;6.444;2023-10-13T16:47:03;18.10;99.50
60473;DHT22;46318;52.716;6.444;2023-10-13T16:49:29;18.10;99.40
60473;DHT22;46318;52.716;6.444;2023-10-13T16:51:56;18.10;99.40
60473;DHT22;46318;52.716;6.444;2023-10-13T16:54:28;18.10;99.40
60473;DHT22;46318;52.716;6.444;2023-10-13T16:57:09;18.10;99.40
60473;DHT22;46318;52.716;6.444;2023-10-13T16:59:54;18.10;99.30
60473;DHT22;46318;52.716;6.444;2023-10-13T17:02:40;18.10;99.10
60473;DHT22;46318;52.716;6.444;2023-10-13T17:06:15;18.10;98.90
60473;DHT22;46318;52.716;6.444;2023-10-13T17:13:22;18.20;98.10
60473;DHT22;46318;52.716;6.444;2023-10-13T17:16:17;18.20;97.90
60473;DHT22;46318;52.716;6.444;2023-10-13T17:18:48;18.20;97.80
60473;DHT22;46318;52.716;6.444;2023-10-13T17:21:31;18.20;97.70
60473;DHT22;46318;52.716;6.444;2023-10-13T17:24:03;18.30;97.60
60473;DHT22;46318;52.716;6.444;2023-10-13T17:26:32;18.30;97.60
60473;DHT22;46318;52.716;6.444;2023-10-13T17:28:58;18.30;97.50
60473;DHT22;46318;52.716;6.444;2023-10-13T17:31:25;18.30;97.60
60473;DHT22;46318;52.716;6.444;2023-10-13T17:34:00;18.30;97.70
60473;DHT22;46318;52.716;6.444;2023-10-13T17:36:28;18.30;97.70
60473;DHT22;46318;52.716;6.444;2023-10-13T17:38:57;18.30;98.00
60473;DHT22;46318;52.716;6.444;2023-10-13T17:41:24;18.20;98.10
60473;DHT22;46318;52.716;6.444;2023-10-13T17:43:59;18.20;98.30
60473;DHT22;46318;52.716;6.444;2023-10-13T17:46:27;18.20;98.30
60473;DHT22;46318;52.716;6.444;2023-10-13T17:48:54;18.20;98.50
60473;DHT22;46318;52.716;6.444;2023-10-13T17:51:23;18.20;98.70
60473;DHT22;46318;52.716;6.444;2023-10-13T17:53:49;18.10;98.80
60473;DHT22;46318;52.716;6.444;2023-10-13T17:56:23;18.10;98.90
60473;DHT22;46318;52.716;6.444;2023-10-13T17:58:49;18.10;98.90
60473;DHT22;46318;52.716;6.444;2023-10-13T18:01:19;18.10;98.90
60473;DHT22;46318;52.716;6.444;2023-10-13T18:03:46;18.10;98.80
60473;DHT22;46318;52.716;6.444;2023-10-13T18:06:20;18.10;98.90
60473;DHT22;46318;52.716;6.444;2023-10-13T18:09:08;18.10;98.70
60473;DHT22;46318;52.716;6.444;2023-10-13T18:11:39;18.10;98.60
60473;DHT22;46318;52.716;6.444;2023-10-13T18:14:12;18.10;98.20
60473;DHT22;46318;52.716;6.444;2023-10-13T18:16:41;18.10;97.60
60473;DHT22;46318;52.716;6.444;2023-10-13T18:19:17;18.10;97.40
60473;DHT22;46318;52.716;6.444;2023-10-13T18:21:48;18.10;97.20
60473;DHT22;46318;52.716;6.444;2023-10-13T18:24:23;18.10;96.90
60473;DHT22;46318;52.716;6.444;2023-10-13T18:26:56;18.20;96.90
60473;DHT22;46318;52.716;6.444;2023-10-13T18:29:26;18.10;96.80
60473;DHT22;46318;52.716;6.444;2023-10-13T18:31:54;18.10;96.80
60473;DHT22;46318;52.716;6.444;2023-10-13T18:34:21;18.10;96.70
60473;DHT22;46318;52.716;6.444;2023-10-13T18:36:47;18.10;96.60
60473;DHT22;46318;52.716;6.444;2023-10-13T18:39:28;18.10;96.70
60473;DHT22;46318;52.716;6.444;2023-10-13T18:42:07;18.10;96.60
60473;DHT22;46318;52.716;6.444;2023-10-13T18:44:34;18.10;96.40
60473;DHT22;46318;52.716;6.444;2023-10-13T18:47:06;18.10;96.40
60473;DHT22;46318;52.716;6.444;2023-10-13T18:49:36;18.00;96.40
60473;DHT22;46318;52.716;6.444;2023-10-13T18:52:03;18.00;96.40
60473;DHT22;46318;52.716;6.444;2023-10-13T18:54:31;18.00;96.30
60473;DHT22;46318;52.716;6.444;2023-10-13T18:57:00;18.00;96.30
60473;DHT22;46318;52.716;6.444;2023-10-13T18:59:28;18.00;96.30
60473;DHT22;46318;52.716;6.444;2023-10-13T19:01:54;18.00;96.40
60473;DHT22;46318;52.716;6.444;2023-10-13T19:04:35;18.00;96.50
60473;DHT22;46318;52.716;6.444;2023-10-13T19:07:18;18.00;96.50
60473;DHT22;46318;52.716;6.444;2023-10-13T19:09:44;18.00;96.60
60473;DHT22;46318;52.716;6.444;2023-10-13T19:12:10;17.90;96.70
60473;DHT22;46318;52.716;6.444;2023-10-13T19:14:38;17.90;96.70
60473;DHT22;46318;52.716;6.444;2023-10-13T19:17:09;17.90;96.90
60473;DHT22;46318;52.716;6.444;2023-10-13T19:19:41;17.90;97.00
60473;DHT22;46318;52.716;6.444;2023-10-13T19:22:13;17.90;97.30
60473;DHT22;46318;52.716;6.444;2023-10-13T19:24:48;17.90;97.70
60473;DHT22;46318;52.716;6.444;2023-10-13T19:27:14;17.90;98.10
60473;DHT22;46318;52.716;6.444;2023-10-13T19:29:45;17.80;98.20
60473;DHT22;46318;52.716;6.444;2023-10-13T19:32:19;17.80;98.40
60473;DHT22;46318;52.716;6.444;2023-10-13T19:34:55;17.80;98.70
60473;DHT22;46318;52.716;6.444;2023-10-13T19:37:21;17.70;98.80
60473;DHT22;46318;52.716;6.444;2023-10-13T19:39:51;17.70;98.90
60473;DHT22;46318;52.716;6.444;2023-10-13T19:42:19;17.80;99.00
60473;DHT22;46318;52.716;6.444;2023-10-13T19:44:47;17.70;98.90
60473;DHT22;46318;52.716;6.444;2023-10-13T19:47:18;17.70;98.80
60473;DHT22;46318;52.716;6.444;2023-10-13T19:49:44;17.70;98.80
60473;DHT22;46318;52.716;6.444;2023-10-13T19:52:15;17.70;98.60
60473;DHT22;46318;52.716;6.444;2023-10-13T19:55:09;17.70;98.70
60473;DHT22;46318;52.716;6.444;2023-10-13T19:57:44;17.70;98.70
60473;DHT22;46318;52.716;6.444;2023-10-13T20:00:14;17.70;98.70
60473;DHT22;46318;52.716;6.444;2023-10-13T20:02:47;17.70;98.60
60473;DHT22;46318;52.716;6.444;2023-10-13T20:05:22;17.70;98.60
60473;DHT22;46318;52.716;6.444;2023-10-13T20:08:09;17.70;98.60
60473;DHT22;46318;52.716;6.444;2023-10-13T20:11:01;17.70;98.70
60473;DHT22;46318;52.716;6.444;2023-10-13T20:13:37;17.70;98.90
60473;DHT22;46318;52.716;6.444;2023-10-13T20:16:06;17.70;98.80
60473;DHT22;46318;52.716;6.444;2023-10-13T20:18:47;17.70;98.80
60473;DHT22;46318;52.716;6.444;2023-10-13T20:21:26;17.70;98.80
60473;DHT22;46318;52.716;6.444;2023-10-13T20:46:04;17.60;100.00
60473;DHT22;46318;52.716;6.444;2023-10-13T20:52:04;17.50;100.00
60473;DHT22;46318;52.716;6.444;2023-10-13T20:54:39;17.50;100.00
60473;DHT22;46318;52.716;6.444;2023-10-13T20:57:40;17.50;100.00
60473;DHT22;46318;52.716;6.444;2023-10-13T21:04:55;17.60;100.00
60473;DHT22;46318;52.716;6.444;2023-10-13T21:08:07;17.60;100.00
60473;DHT22;46318;52.716;6.444;2023-10-13T21:48:11;17.20;100.00
60473;DHT22;46318;52.716;6.444;2023-10-13T21:51:21;17.20;100.00
60473;DHT22;46318;52.716;6.444;2023-10-13T21:54:11;17.20;100.00
60473;DHT22;46318;52.716;6.444;2023-10-13T22:00:29;17.30;100.00
60473;DHT22;46318;52.716;6.444;2023-10-13T22:03:39;17.20;100.00
60473;DHT22;46318;52.716;6.444;2023-10-13T22:06:55;17.20;100.00
60473;DHT22;46318;52.716;6.444;2023-10-13T22:09:27;17.20;100.00
60473;DHT22;46318;52.716;6.444;2023-10-13T22:12:27;17.20;100.00
60473;DHT22;46318;52.716;6.444;2023-10-13T22:15:08;17.20;97.90
60473;DHT22;46318;52.716;6.444;2023-10-13T22:18:01;17.00;95.30
60473;DHT22;46318;52.716;6.444;2023-10-13T23:14:57;14.70;97.10
60473;DHT22;46318;52.716;6.444;2023-10-13T23:18:30;14.70;97.10
